createdAt,value
2023-04-15T00:01:45.218Z,67.36
2023-04-15T00:04:13.209Z,67.41
2023-04-15T00:06:41.112Z,67.67
2023-04-15T00:09:09.000Z,68.12
2023-04-15T00:11:36.753Z,67.75
2023-04-15T00:14:04.653Z,67.96
2023-04-15T00:16:32.606Z,67.63
2023-04-15T00:19:00.666Z,67.82
2023-04-15T00:21:29.167Z,67.78
2023-04-15T00:23:56.940Z,67.76
2023-04-15T00:26:24.655Z,67.95
2023-04-15T00:28:52.400Z,67.79
2023-04-15T00:31:21.020Z,67.65
2023-04-15T00:33:49.069Z,68.02
2023-04-15T00:36:16.917Z,67.81
2023-04-15T00:38:44.716Z,67.77
2023-04-15T00:41:13.074Z,68.37
2023-04-15T00:43:41.123Z,69.14
2023-04-15T00:46:10.767Z,68.77
2023-04-15T00:48:39.314Z,68.96
2023-04-15T00:51:07.754Z,68.84
2023-04-15T00:53:35.871Z,68.69
2023-04-15T00:56:03.942Z,68.96
2023-04-15T00:58:32.038Z,69.27
2023-04-15T01:01:00.297Z,69.20
2023-04-15T01:03:29.798Z,69.40
2023-04-15T01:05:58.863Z,69.53
2023-04-15T01:08:29.918Z,69.43
2023-04-15T01:10:59.362Z,69.44
2023-04-15T01:13:28.023Z,70.63
2023-04-15T01:15:57.967Z,69.99
2023-04-15T01:18:26.194Z,70.44
2023-04-15T01:20:54.286Z,70.09
2023-04-15T01:23:23.364Z,69.77
2023-04-15T01:25:53.643Z,70.16
2023-04-15T01:28:21.464Z,69.86
2023-04-15T01:30:49.319Z,70.52
2023-04-15T01:33:17.181Z,70.76
2023-04-15T01:35:45.043Z,70.96
2023-04-15T01:38:13.731Z,70.70
2023-04-15T01:40:41.490Z,70.77
2023-04-15T01:43:09.563Z,71.90
2023-04-15T01:45:37.740Z,71.21
2023-04-15T01:48:05.980Z,72.19
2023-04-15T01:50:34.162Z,72.15
2023-04-15T01:53:02.326Z,71.74
2023-04-15T01:55:31.144Z,71.74
2023-04-15T01:57:58.909Z,71.63
2023-04-15T02:00:26.884Z,72.17
2023-04-15T02:02:54.800Z,72.14
2023-04-15T02:05:22.811Z,72.07
2023-04-15T02:07:50.626Z,73.91
2023-04-15T02:10:18.545Z,73.62
2023-04-15T02:12:46.752Z,72.97
2023-04-15T02:15:14.682Z,74.14
2023-04-15T02:17:46.001Z,74.08
2023-04-15T02:20:13.896Z,73.35
2023-04-15T02:22:41.766Z,73.70
2023-04-15T02:25:10.450Z,74.24
2023-04-15T02:27:38.325Z,73.76
2023-04-15T02:30:07.491Z,74.45
2023-04-15T02:32:35.553Z,74.08
2023-04-15T02:35:05.802Z,74.64
2023-04-15T02:37:40.843Z,74.20
2023-04-15T02:40:13.619Z,74.50
2023-04-15T02:42:42.848Z,74.40
2023-04-15T02:45:12.746Z,74.69
2023-04-15T02:47:41.627Z,74.49
2023-04-15T02:50:12.709Z,75.33
2023-04-15T02:52:42.074Z,75.26
2023-04-15T02:55:10.364Z,75.46
2023-04-15T02:57:39.461Z,74.69
2023-04-15T03:00:09.868Z,75.09
2023-04-15T03:02:39.564Z,75.58
2023-04-15T03:05:11.745Z,75.25
2023-04-15T03:07:41.191Z,75.38
2023-04-15T03:10:10.616Z,75.36
2023-04-15T03:12:38.419Z,75.32
2023-04-15T03:15:06.933Z,75.10
2023-04-15T03:17:34.789Z,75.29
2023-04-15T03:20:06.592Z,75.98
2023-04-15T03:22:34.529Z,76.55
2023-04-15T03:25:02.360Z,76.56
2023-04-15T03:27:30.229Z,75.53
2023-04-15T03:29:57.963Z,76.24
2023-04-15T03:32:26.084Z,77.22
2023-04-15T03:34:53.920Z,76.60
2023-04-15T03:37:21.854Z,75.81
2023-04-15T03:39:49.755Z,76.09
2023-04-15T03:42:17.654Z,76.33
2023-04-15T03:44:45.456Z,76.48
2023-04-15T03:47:13.353Z,76.44
2023-04-15T03:49:41.586Z,76.28
2023-04-15T03:52:09.610Z,76.74
2023-04-15T03:54:37.459Z,77.29
2023-04-15T03:57:05.171Z,76.51
2023-04-15T03:59:32.920Z,77.37
2023-04-15T04:02:01.026Z,76.76
2023-04-15T04:04:29.089Z,77.87
2023-04-15T04:06:56.991Z,76.85
2023-04-15T04:09:24.861Z,76.81
2023-04-15T04:11:52.734Z,77.20
2023-04-15T04:14:20.690Z,76.88
2023-04-15T04:16:48.490Z,77.42
2023-04-15T04:19:19.666Z,76.82
2023-04-15T04:21:47.575Z,77.05
2023-04-15T04:24:15.736Z,77.83
2023-04-15T04:26:44.116Z,77.29
2023-04-15T04:29:11.979Z,77.55
2023-04-15T04:31:39.871Z,78.33
2023-04-15T04:34:08.017Z,77.67
2023-04-15T04:36:36.103Z,78.39
2023-04-15T04:39:04.199Z,77.80
2023-04-15T04:41:32.538Z,78.55
2023-04-15T04:44:00.509Z,77.78
2023-04-15T04:46:28.393Z,78.67
2023-04-15T04:48:56.245Z,78.45
2023-04-15T04:51:24.201Z,78.41
2023-04-15T04:53:52.069Z,78.10
2023-04-15T04:56:19.946Z,77.90
2023-04-15T04:58:47.800Z,77.85
2023-04-15T05:01:15.769Z,78.84
2023-04-15T05:03:43.850Z,78.17
2023-04-15T05:06:11.759Z,78.98
2023-04-15T05:08:41.015Z,78.41
2023-04-15T05:11:09.295Z,78.58
2023-04-15T05:13:38.913Z,78.54
2023-04-15T05:16:07.772Z,78.55
2023-04-15T05:18:35.771Z,78.43
2023-04-15T05:21:03.729Z,78.69
2023-04-15T05:23:31.720Z,78.47
2023-04-15T05:25:59.559Z,78.99
2023-04-15T05:28:27.631Z,78.69
2023-04-15T05:30:55.823Z,79.12
2023-04-15T05:33:23.772Z,78.92
2023-04-15T05:35:51.997Z,79.76
2023-04-15T05:38:19.811Z,79.43
2023-04-15T05:40:47.879Z,79.16
2023-04-15T05:43:15.848Z,78.67
2023-04-15T05:45:43.610Z,79.27
2023-04-15T05:48:11.399Z,79.89
2023-04-15T05:50:42.184Z,79.44
2023-04-15T05:53:10.096Z,79.68
2023-04-15T05:55:37.939Z,79.99
2023-04-15T05:58:05.808Z,78.95
2023-04-15T06:00:33.889Z,79.81
2023-04-15T06:03:01.909Z,80.05
2023-04-15T06:05:30.121Z,79.69
2023-04-15T06:07:57.990Z,79.74
2023-04-15T06:10:25.921Z,80.52
2023-04-15T06:12:54.359Z,79.97
2023-04-15T06:15:22.196Z,80.15
2023-04-15T06:17:50.136Z,80.50
2023-04-15T06:20:18.031Z,80.01
2023-04-15T06:22:45.827Z,80.20
2023-04-15T06:25:14.274Z,79.87
2023-04-15T06:27:42.250Z,79.91
2023-04-15T06:30:10.650Z,80.33
2023-04-15T06:32:38.559Z,80.20
2023-04-15T06:35:06.560Z,80.81
2023-04-15T06:37:34.424Z,80.17
2023-04-15T06:40:02.320Z,80.62
2023-04-15T06:42:30.352Z,80.63
2023-04-15T06:44:58.224Z,80.92
2023-04-15T06:47:26.303Z,80.72
2023-04-15T06:49:54.563Z,80.37
2023-04-15T06:52:22.432Z,80.80
2023-04-15T06:54:50.203Z,80.22
2023-04-15T06:57:17.959Z,80.35
2023-04-15T06:59:46.336Z,79.90
2023-04-15T07:02:14.951Z,80.58
2023-04-15T07:04:42.782Z,80.72
2023-04-15T07:07:10.604Z,80.64
2023-04-15T07:09:38.788Z,80.88
2023-04-15T07:12:06.643Z,80.68
2023-04-15T07:14:34.513Z,80.85
2023-04-15T07:17:02.925Z,81.17
2023-04-15T07:19:30.770Z,81.09
2023-04-15T07:21:58.546Z,81.03
2023-04-15T07:24:27.094Z,81.14
2023-04-15T07:26:59.416Z,81.46
2023-04-15T07:29:28.664Z,81.23
2023-04-15T07:31:57.347Z,81.04
2023-04-15T07:34:26.032Z,81.44
2023-04-15T07:36:53.922Z,81.17
2023-04-15T07:39:21.866Z,82.02
2023-04-15T07:41:49.957Z,81.31
2023-04-15T07:44:17.808Z,81.57
2023-04-15T07:46:45.674Z,81.25
2023-04-15T07:49:13.654Z,81.54
2023-04-15T07:51:42.527Z,81.91
2023-04-15T07:54:16.549Z,81.98
2023-04-15T07:56:44.407Z,81.88
2023-04-15T07:59:13.112Z,82.00
2023-04-15T08:01:41.059Z,81.86
2023-04-15T08:04:09.354Z,81.47
2023-04-15T08:06:40.108Z,81.60
2023-04-15T08:09:08.452Z,81.55
2023-04-15T08:11:36.853Z,81.97
2023-04-15T08:14:04.743Z,82.33
2023-04-15T08:16:33.400Z,81.86
2023-04-15T08:19:02.489Z,81.72
2023-04-15T08:21:41.264Z,82.28
2023-04-15T08:24:09.396Z,81.85
2023-04-15T08:26:38.481Z,81.69
2023-04-15T08:29:06.875Z,81.48
2023-04-15T08:31:34.805Z,81.62
2023-04-15T08:34:03.012Z,81.89
2023-04-15T08:36:32.576Z,81.64
2023-04-15T08:39:05.191Z,81.77
2023-04-15T08:41:41.752Z,82.17
2023-04-15T08:44:11.001Z,82.15
2023-04-15T08:46:40.101Z,81.79
2023-04-15T08:49:13.684Z,83.09
2023-04-15T08:51:43.408Z,82.26
2023-04-15T08:54:14.510Z,81.88
2023-04-15T08:56:43.156Z,81.77
2023-04-15T08:59:13.085Z,81.67
2023-04-15T09:01:41.683Z,81.78
2023-04-15T09:04:13.097Z,81.89
2023-04-15T09:06:41.835Z,81.73
2023-04-15T09:09:09.892Z,81.73
2023-04-15T09:11:37.765Z,81.97
2023-04-15T09:14:05.624Z,82.72
2023-04-15T09:17:01.070Z,82.16
2023-04-15T09:19:29.363Z,81.81
2023-04-15T09:22:00.152Z,82.10
2023-04-15T09:24:39.383Z,82.36
2023-04-15T09:27:07.750Z,82.25
2023-04-15T09:29:35.647Z,82.05
2023-04-15T09:32:11.502Z,82.66
2023-04-15T09:34:39.355Z,82.43
2023-04-15T09:37:08.061Z,82.17
2023-04-15T09:39:47.690Z,82.14
2023-04-15T09:42:17.685Z,81.89
2023-04-15T09:44:45.594Z,82.09
2023-04-15T09:47:28.271Z,82.21
2023-04-15T09:49:57.735Z,82.56
2023-04-15T09:52:26.130Z,82.35
2023-04-15T09:54:56.616Z,81.92
2023-04-15T09:57:25.065Z,81.91
2023-04-15T09:59:53.414Z,81.79
2023-04-15T10:02:22.078Z,82.74
2023-04-15T10:04:51.986Z,82.01
2023-04-15T10:07:22.511Z,82.64
2023-04-15T10:09:51.449Z,82.92
2023-04-15T10:12:20.117Z,82.72
2023-04-15T10:14:58.974Z,82.78
2023-04-15T10:17:31.640Z,82.62
2023-04-15T10:20:02.412Z,82.48
2023-04-15T10:22:31.563Z,82.47
2023-04-15T10:25:02.444Z,82.26
2023-04-15T10:27:31.281Z,82.86
2023-04-15T10:30:01.129Z,82.66
2023-04-15T10:32:29.919Z,82.57
2023-04-15T10:34:58.793Z,82.83
2023-04-15T10:37:37.690Z,82.58
2023-04-15T10:40:32.567Z,83.09
2023-04-15T10:43:02.442Z,83.55
2023-04-15T10:45:36.896Z,82.81
2023-04-15T10:48:07.720Z,82.59
2023-04-15T10:50:37.789Z,82.75
2023-04-15T10:53:05.885Z,83.00
2023-04-15T10:55:34.696Z,82.96
2023-04-15T10:58:03.279Z,82.91
2023-04-15T11:00:32.825Z,82.84
2023-04-15T11:03:08.485Z,83.22
2023-04-15T11:05:39.401Z,82.66
2023-04-15T11:08:08.897Z,82.74
2023-04-15T11:10:36.768Z,82.96
2023-04-15T11:13:16.849Z,82.66
2023-04-15T11:15:46.525Z,82.43
2023-04-15T11:18:30.265Z,82.53
2023-04-15T11:21:01.540Z,82.78
2023-04-15T11:23:38.146Z,82.64
2023-04-15T11:26:15.466Z,82.73
2023-04-15T11:28:45.420Z,82.57
2023-04-15T11:31:18.428Z,82.62
2023-04-15T11:34:01.581Z,82.79
2023-04-15T11:36:32.370Z,82.93
2023-04-15T11:39:00.971Z,82.59
2023-04-15T11:41:29.696Z,82.69
2023-04-15T11:43:57.508Z,82.65
2023-04-15T11:46:32.224Z,82.44
2023-04-15T11:49:00.464Z,82.04
2023-04-15T11:51:33.971Z,82.13
2023-04-15T11:54:02.146Z,82.30
2023-04-15T11:56:31.343Z,81.73
2023-04-15T11:59:00.171Z,81.73
2023-04-15T12:01:32.591Z,82.01
2023-04-15T12:04:01.883Z,82.08
2023-04-15T12:06:36.987Z,81.64
2023-04-15T12:09:12.099Z,81.74
2023-04-15T12:11:50.032Z,81.74
2023-04-15T12:14:30.844Z,81.50
2023-04-15T12:17:05.025Z,80.97
2023-04-15T12:19:38.051Z,81.37
2023-04-15T12:22:11.067Z,81.52
2023-04-15T12:24:40.022Z,80.96
2023-04-15T12:27:11.391Z,80.74
2023-04-15T12:29:42.138Z,80.42
2023-04-15T12:32:12.607Z,80.68
2023-04-15T12:34:42.114Z,80.04
2023-04-15T12:37:13.368Z,79.43
2023-04-15T12:39:43.527Z,79.45
2023-04-15T12:42:12.465Z,80.09
2023-04-15T12:44:40.473Z,80.08
2023-04-15T12:47:09.580Z,80.03
2023-04-15T12:49:38.422Z,80.28
2023-04-15T12:52:06.900Z,80.37
2023-04-15T12:54:36.258Z,80.05
2023-04-15T12:57:06.760Z,80.24
2023-04-15T12:59:36.638Z,80.23
2023-04-15T13:02:04.726Z,80.17
2023-04-15T13:04:33.058Z,80.38
2023-04-15T13:07:02.318Z,80.33
2023-04-15T13:09:30.373Z,80.35
2023-04-15T13:11:58.532Z,80.12
2023-04-15T13:14:27.234Z,79.89
2023-04-15T13:16:55.188Z,80.10
2023-04-15T13:19:23.075Z,79.78
2023-04-15T13:21:51.184Z,80.05
2023-04-15T13:24:18.986Z,79.66
2023-04-15T13:26:48.525Z,79.46
2023-04-15T13:29:17.527Z,79.17
2023-04-15T13:31:45.632Z,79.59
2023-04-15T13:34:13.622Z,79.49
2023-04-15T13:36:42.005Z,79.50
2023-04-15T13:39:09.862Z,79.26
2023-04-15T13:41:37.735Z,79.35
2023-04-15T13:44:06.498Z,78.99
2023-04-15T13:46:34.611Z,78.71
2023-04-15T13:49:02.558Z,78.57
2023-04-15T13:51:31.235Z,78.82
2023-04-15T13:53:59.724Z,78.19
2023-04-15T13:56:27.689Z,78.77
2023-04-15T13:58:59.076Z,78.02
2023-04-15T14:01:27.526Z,78.05
2023-04-15T14:03:56.304Z,78.00
2023-04-15T14:06:24.859Z,77.96
2023-04-15T14:08:53.456Z,77.89
2023-04-15T14:11:21.620Z,78.04
2023-04-15T14:13:49.745Z,77.86
2023-04-15T14:16:17.555Z,77.73
2023-04-15T14:18:48.504Z,77.27
2023-04-15T14:21:16.885Z,76.82
2023-04-15T14:23:44.749Z,76.97
2023-04-15T14:26:14.066Z,77.29
2023-04-15T14:28:43.044Z,77.12
2023-04-15T14:31:11.218Z,77.19
2023-04-15T14:33:39.086Z,76.38
2023-04-15T14:36:08.111Z,76.53
2023-04-15T14:38:40.263Z,76.64
2023-04-15T14:41:09.019Z,76.39
2023-04-15T14:43:36.982Z,76.39
2023-04-15T14:46:05.091Z,75.94
2023-04-15T14:48:33.250Z,76.30
2023-04-15T14:51:01.315Z,75.84
2023-04-15T14:53:29.481Z,76.19
2023-04-15T14:55:57.332Z,75.01
2023-04-15T14:58:25.467Z,74.65
2023-04-15T15:00:53.402Z,74.89
2023-04-15T15:03:21.376Z,74.81
2023-04-15T15:05:49.327Z,74.99
2023-04-15T15:08:17.306Z,74.43
2023-04-15T15:10:49.771Z,74.10
2023-04-15T15:13:19.103Z,74.19
2023-04-15T15:15:49.454Z,74.38
2023-04-15T15:18:19.419Z,74.28
2023-04-15T15:20:47.858Z,74.14
2023-04-15T15:23:16.158Z,74.26
2023-04-15T15:25:45.967Z,74.27
2023-04-15T15:28:13.856Z,74.17
2023-04-15T15:30:41.704Z,73.89
2023-04-15T15:33:09.570Z,74.07
2023-04-15T15:35:37.539Z,73.77
2023-04-15T15:38:06.439Z,73.64
2023-04-15T15:40:34.239Z,73.81
2023-04-15T15:43:02.013Z,73.63
2023-04-15T15:45:30.640Z,73.52
2023-04-15T15:47:59.391Z,73.46
2023-04-15T15:50:27.596Z,73.44
2023-04-15T15:52:55.693Z,73.51
2023-04-15T15:55:25.379Z,73.53
2023-04-15T15:57:54.515Z,73.48
2023-04-15T16:00:23.382Z,73.55
2023-04-15T16:03:06.895Z,73.58
2023-04-15T16:05:36.184Z,73.35
2023-04-15T16:08:04.566Z,73.21
2023-04-15T16:10:32.538Z,73.10
2023-04-15T16:13:00.614Z,73.22
2023-04-15T16:15:28.683Z,72.99
2023-04-15T16:17:56.824Z,73.28
2023-04-15T16:20:24.693Z,72.58
2023-04-15T16:22:52.533Z,72.73
2023-04-15T16:25:20.581Z,72.88
2023-04-15T16:28:00.799Z,72.84
2023-04-15T16:30:37.024Z,72.33
2023-04-15T16:33:08.528Z,72.13
2023-04-15T16:35:36.379Z,71.85
2023-04-15T16:38:04.244Z,72.32
2023-04-15T16:40:33.060Z,72.40
2023-04-15T16:43:00.908Z,72.14
2023-04-15T16:45:28.767Z,72.11
2023-04-15T16:47:57.073Z,72.19
2023-04-15T16:50:25.216Z,72.02
2023-04-15T16:52:53.203Z,72.01
2023-04-15T16:55:21.169Z,72.18
2023-04-15T16:58:01.506Z,72.15
2023-04-15T17:00:32.153Z,72.47
2023-04-15T17:03:03.768Z,72.24
2023-04-15T17:05:31.834Z,72.19
2023-04-15T17:07:59.737Z,72.26
2023-04-15T17:10:28.407Z,72.44
2023-04-15T17:12:57.210Z,72.34
2023-04-15T17:15:25.548Z,72.71
2023-04-15T17:17:53.738Z,72.55
2023-04-15T17:20:22.090Z,72.44
2023-04-15T17:22:50.221Z,72.57
2023-04-15T17:25:18.575Z,72.55
2023-04-15T17:27:46.554Z,72.72
2023-04-15T17:30:14.412Z,72.64
2023-04-15T17:32:42.359Z,72.83
2023-04-15T17:35:10.742Z,72.73
2023-04-15T17:37:39.041Z,72.83
2023-04-15T17:40:08.761Z,73.47
2023-04-15T17:42:36.738Z,73.35
2023-04-15T17:45:05.057Z,73.56
2023-04-15T17:47:32.941Z,73.06
2023-04-15T17:50:01.139Z,73.20
2023-04-15T17:52:29.009Z,73.22
2023-04-15T17:54:57.073Z,73.44
2023-04-15T17:57:25.442Z,73.72
2023-04-15T17:59:53.235Z,73.85
2023-04-15T18:02:21.145Z,74.28
2023-04-15T18:04:49.508Z,73.63
2023-04-15T18:07:17.455Z,73.64
2023-04-15T18:09:46.018Z,73.68
2023-04-15T18:12:14.074Z,73.65
2023-04-15T18:14:41.990Z,74.01
2023-04-15T18:17:09.900Z,73.80
2023-04-15T18:19:37.766Z,74.30
2023-04-15T18:22:07.074Z,74.04
2023-04-15T18:24:35.427Z,74.07
2023-04-15T18:27:03.864Z,74.08
2023-04-15T18:29:31.791Z,74.53
2023-04-15T18:32:00.487Z,74.38
2023-04-15T18:34:29.717Z,74.22
2023-04-15T18:36:58.508Z,74.59
2023-04-15T18:39:27.474Z,74.50
2023-04-15T18:41:56.420Z,74.74
2023-04-15T18:44:24.521Z,75.14
2023-04-15T18:46:52.393Z,74.64
2023-04-15T19:03:19.635Z,74.71
2023-04-15T19:05:47.766Z,75.08
2023-04-15T19:08:15.513Z,75.90
2023-04-15T19:10:43.264Z,75.36
2023-04-15T19:13:11.056Z,75.15
2023-04-15T19:15:38.699Z,75.59
2023-04-15T19:18:10.476Z,75.68
2023-04-15T19:20:39.986Z,75.98
2023-04-15T19:23:08.360Z,76.19
2023-04-15T19:25:37.047Z,76.08
2023-04-15T19:28:05.034Z,76.30
2023-04-15T19:30:33.106Z,76.13
2023-04-15T19:33:00.820Z,75.77
2023-04-15T19:35:28.609Z,76.28
2023-04-15T19:37:56.370Z,76.68
2023-04-15T19:40:24.230Z,76.67
2023-04-15T19:42:51.900Z,76.65
2023-04-15T19:45:19.910Z,76.43
2023-04-15T19:47:48.074Z,76.79
2023-04-15T19:50:41.377Z,77.29
2023-04-15T19:53:14.333Z,77.97
2023-04-15T19:55:45.450Z,77.16
2023-04-15T19:58:14.586Z,77.55
2023-04-15T20:00:42.516Z,77.45
2023-04-15T20:03:10.819Z,77.19
2023-04-15T20:05:38.710Z,77.29
2023-04-15T20:08:06.600Z,77.24
2023-04-15T20:10:35.393Z,77.35
2023-04-15T20:13:03.156Z,77.29
2023-04-15T20:15:30.873Z,77.31
2023-04-15T20:18:01.871Z,77.38
2023-04-15T20:20:31.653Z,77.65
2023-04-15T20:22:59.292Z,77.11
2023-04-15T20:25:27.040Z,77.22
2023-04-15T20:27:54.706Z,77.41
2023-04-15T20:30:22.507Z,77.40
2023-04-15T20:32:50.362Z,77.65
2023-04-15T20:35:18.171Z,77.18
2023-04-15T20:37:45.961Z,77.81
2023-04-15T20:40:14.511Z,78.11
2023-04-15T20:42:43.813Z,77.44
2023-04-15T20:45:11.770Z,77.71
2023-04-15T20:47:39.451Z,77.92
2023-04-15T20:50:08.170Z,77.79
2023-04-15T20:52:36.268Z,77.94
2023-04-15T20:55:04.733Z,77.90
2023-04-15T20:57:32.362Z,78.65
2023-04-15T21:00:00.040Z,78.53
2023-04-15T21:02:27.913Z,77.89
2023-04-15T21:04:55.999Z,78.06
2023-04-15T21:07:23.664Z,78.24
2023-04-15T21:09:51.499Z,77.85
2023-04-15T21:12:19.193Z,77.81
2023-04-15T21:14:46.937Z,78.22
2023-04-15T21:17:14.742Z,78.94
2023-04-15T21:19:42.917Z,78.38
2023-04-15T21:22:10.919Z,78.22
2023-04-15T21:24:38.728Z,78.51
2023-04-15T21:27:06.451Z,78.19
2023-04-15T21:29:34.256Z,78.50
2023-04-15T21:32:02.052Z,78.33
2023-04-15T21:34:30.189Z,78.77
2023-04-15T21:36:57.830Z,78.59
2023-04-15T21:39:25.906Z,78.71
2023-04-15T21:41:53.633Z,78.86
2023-04-15T21:44:21.366Z,78.81
2023-04-15T21:46:49.137Z,78.88
2023-04-15T21:49:17.158Z,78.79
2023-04-15T21:51:45.779Z,79.13
2023-04-15T21:54:13.803Z,79.00
2023-04-15T21:56:42.623Z,78.76
2023-04-15T21:59:10.614Z,78.64
2023-04-15T22:01:38.458Z,78.82
2023-04-15T22:04:07.707Z,78.94
2023-04-15T22:06:35.620Z,78.76
2023-04-15T22:09:03.486Z,79.14
2023-04-15T22:11:32.300Z,79.26
2023-04-15T22:13:59.921Z,79.32
2023-04-15T22:16:28.187Z,79.05
2023-04-15T22:18:56.206Z,78.60
2023-04-15T22:21:24.061Z,78.58
2023-04-15T22:23:52.241Z,79.03
2023-04-15T22:26:19.910Z,79.14
2023-04-15T22:28:47.583Z,79.51
2023-04-15T22:31:15.425Z,79.38
2023-04-15T22:33:43.166Z,79.26
2023-04-15T22:36:11.234Z,79.82
2023-04-15T22:38:38.902Z,79.54
2023-04-15T22:41:06.756Z,79.44
2023-04-15T22:43:34.417Z,79.38
2023-04-15T22:46:02.079Z,79.79
2023-04-15T22:48:29.948Z,79.76
2023-04-15T22:50:57.564Z,79.56
2023-04-15T22:53:25.359Z,79.47
2023-04-15T22:55:54.038Z,79.39
2023-04-15T22:58:21.695Z,79.35
2023-04-15T23:00:50.289Z,79.33
2023-04-15T23:03:18.089Z,79.42
2023-04-15T23:05:46.212Z,79.48
2023-04-15T23:08:13.869Z,79.74
2023-04-15T23:10:41.625Z,79.61
2023-04-15T23:13:09.259Z,79.35
2023-04-15T23:15:37.095Z,80.02
2023-04-15T23:18:04.882Z,79.64
2023-04-15T23:20:33.931Z,79.41
2023-04-15T23:23:01.686Z,79.50
2023-04-15T23:25:29.379Z,79.85
2023-04-15T23:27:57.053Z,79.66
2023-04-15T23:30:24.781Z,79.39
2023-04-15T23:32:52.633Z,79.68
2023-04-15T23:35:21.077Z,79.57
2023-04-15T23:37:48.697Z,79.82
2023-04-15T23:40:16.555Z,79.97
2023-04-15T23:42:44.520Z,79.81
2023-04-15T23:45:12.687Z,79.85
2023-04-15T23:47:40.405Z,80.05
2023-04-15T23:50:09.070Z,79.59
2023-04-15T23:52:37.063Z,79.88
2023-04-15T23:55:05.049Z,79.84
2023-04-15T23:57:32.721Z,80.10
